createdAt,value
2022-08-26T00:01:41.604Z,7.88
2022-08-26T00:04:11.273Z,7.97
2022-08-26T00:06:38.517Z,7.43
2022-08-26T00:09:09.629Z,8.13
2022-08-26T00:11:36.498Z,8.27
2022-08-26T00:14:03.531Z,7.63
2022-08-26T00:16:30.194Z,8.18
2022-08-26T00:18:57.106Z,7.83
2022-08-26T00:21:24.828Z,8.68
2022-08-26T00:23:51.436Z,9.88
2022-08-26T00:26:18.360Z,8.95
2022-08-26T00:28:44.930Z,8.20
2022-08-26T00:31:11.958Z,9.60
2022-08-26T00:33:39.607Z,9.13
2022-08-26T00:36:07.614Z,10.25
2022-08-26T00:38:37.850Z,11.95
2022-08-26T00:41:05.654Z,12.23
2022-08-26T00:43:47.362Z,15.57
2022-08-26T00:46:19.408Z,10.90
2022-08-26T00:48:49.518Z,12.48
2022-08-26T00:51:20.886Z,12.57
2022-08-26T00:53:56.823Z,15.38
2022-08-26T00:56:53.801Z,17.33
2022-08-26T00:59:21.138Z,23.83
2022-08-26T01:01:47.801Z,25.75
2022-08-26T01:04:19.375Z,31.33
2022-08-26T01:06:49.223Z,26.65
2022-08-26T01:09:16.793Z,30.50
2022-08-26T01:11:44.349Z,35.58
2022-08-26T01:14:13.668Z,35.28
2022-08-26T01:16:40.365Z,35.55
2022-08-26T01:19:32.000Z,39.72
2022-08-26T01:22:21.876Z,43.95
2022-08-26T01:24:54.609Z,49.60
2022-08-26T01:27:22.084Z,46.35
2022-08-26T01:29:50.916Z,49.55
2022-08-26T01:34:47.668Z,54.33
2022-08-26T01:37:20.279Z,54.17
2022-08-26T01:39:50.761Z,58.00
2022-08-26T01:42:21.017Z,57.58
2022-08-26T01:45:01.047Z,55.78
2022-08-26T01:47:30.830Z,63.35
2022-08-26T01:50:01.175Z,68.53
2022-08-26T01:52:33.212Z,71.20
2022-08-26T01:55:00.842Z,68.38
2022-08-26T01:57:28.586Z,75.57
2022-08-26T01:59:58.687Z,78.03
2022-08-26T02:02:26.066Z,78.50
2022-08-26T02:05:05.405Z,74.72
2022-08-26T02:07:33.393Z,82.63
2022-08-26T02:10:00.202Z,85.00
2022-08-26T02:12:27.617Z,88.97
2022-08-26T02:14:58.006Z,84.15
2022-08-26T02:17:34.867Z,83.70
2022-08-26T02:20:02.485Z,93.35
2022-08-26T02:25:13.452Z,89.55
2022-08-26T02:27:40.804Z,92.13
2022-08-26T02:30:15.133Z,93.87
2022-08-26T02:32:44.550Z,91.87
2022-08-26T02:35:13.100Z,86.40
2022-08-26T02:37:44.941Z,85.32
2022-08-26T02:40:14.042Z,92.43
2022-08-26T02:42:41.482Z,86.60
2022-08-26T02:45:10.634Z,83.72
2022-08-26T02:47:37.535Z,90.35
2022-08-26T02:50:04.952Z,89.25
2022-08-26T02:54:58.954Z,82.97
2022-08-26T02:57:26.245Z,82.00
2022-08-26T02:59:52.853Z,86.80
2022-08-26T03:02:19.437Z,81.75
2022-08-26T03:04:57.342Z,78.37
2022-08-26T03:07:24.779Z,79.28
2022-08-26T03:09:53.001Z,71.07
2022-08-26T03:12:20.438Z,79.38
2022-08-26T03:14:47.828Z,86.30
2022-08-26T03:17:14.407Z,84.10
2022-08-26T03:19:40.944Z,80.47
2022-08-26T03:22:07.850Z,74.80
2022-08-26T03:24:34.528Z,73.93
2022-08-26T03:27:02.061Z,75.23
2022-08-26T03:29:52.193Z,74.13
2022-08-26T03:32:20.803Z,72.17
2022-08-26T03:34:47.430Z,70.90
2022-08-26T03:37:14.803Z,59.13
2022-08-26T03:39:41.781Z,66.43
2022-08-26T03:42:08.324Z,70.20
2022-08-26T03:44:37.725Z,67.60
2022-08-26T03:47:08.590Z,70.95
2022-08-26T03:49:36.014Z,66.00
2022-08-26T03:52:03.777Z,69.45
2022-08-26T03:54:30.579Z,67.50
2022-08-26T03:56:57.141Z,66.40
2022-08-26T03:59:23.682Z,63.38
2022-08-26T04:01:51.498Z,63.60
2022-08-26T04:04:18.239Z,63.83
2022-08-26T04:06:50.381Z,67.10
2022-08-26T04:11:50.512Z,66.60
2022-08-26T04:14:21.095Z,67.32
2022-08-26T04:16:48.366Z,67.95
2022-08-26T04:19:16.677Z,68.97
2022-08-26T04:21:44.165Z,68.55
2022-08-26T04:24:12.865Z,74.75
2022-08-26T04:26:42.552Z,91.35
2022-08-26T04:29:17.710Z,79.43
2022-08-26T04:31:45.154Z,73.88
2022-08-26T04:36:41.917Z,70.35
2022-08-26T04:39:12.070Z,75.10
2022-08-26T04:41:39.690Z,70.05
2022-08-26T04:44:07.767Z,70.97
2022-08-26T04:46:35.319Z,62.90
2022-08-26T04:49:11.010Z,57.63
2022-08-26T04:51:38.220Z,58.90
2022-08-26T04:56:37.097Z,50.83
2022-08-26T04:59:07.224Z,48.60
2022-08-26T05:01:39.514Z,45.55
2022-08-26T05:04:08.198Z,47.50
2022-08-26T05:06:36.921Z,44.92
2022-08-26T05:09:03.984Z,44.28
2022-08-26T05:11:30.594Z,43.00
2022-08-26T05:14:01.658Z,44.97
2022-08-26T05:16:30.379Z,40.47
2022-08-26T05:18:57.531Z,42.65
2022-08-26T05:21:26.396Z,42.03
2022-08-26T05:23:57.106Z,37.42
2022-08-26T05:26:29.672Z,39.10
2022-08-26T05:28:56.876Z,37.72
2022-08-26T05:31:27.388Z,36.42
2022-08-26T05:33:54.868Z,32.92
2022-08-26T05:36:24.089Z,32.95
2022-08-26T05:38:54.336Z,35.65
2022-08-26T05:41:24.953Z,31.95
2022-08-26T05:43:52.473Z,30.58
2022-08-26T05:48:46.945Z,29.47
2022-08-26T05:51:14.379Z,28.55
2022-08-26T05:53:43.969Z,32.33
2022-08-26T05:56:25.016Z,30.27
2022-08-26T05:58:52.155Z,28.70
2022-08-26T06:01:22.157Z,29.35
2022-08-26T06:03:52.620Z,26.77
2022-08-26T06:06:27.456Z,26.65
2022-08-26T06:08:57.547Z,33.45
2022-08-26T06:11:25.568Z,27.73
2022-08-26T06:13:53.819Z,30.23
2022-08-26T06:16:24.578Z,29.70
2022-08-26T06:18:53.182Z,24.20
2022-08-26T06:21:27.903Z,29.00
2022-08-26T06:24:18.306Z,27.27
2022-08-26T06:26:54.877Z,28.65
2022-08-26T06:33:39.662Z,25.23
2022-08-26T06:36:06.917Z,23.17
2022-08-26T06:38:33.861Z,26.42
2022-08-26T06:41:03.209Z,25.40
2022-08-26T06:43:30.135Z,23.67
2022-08-26T06:46:05.073Z,22.92
2022-08-26T06:48:35.939Z,23.73
2022-08-26T06:51:11.436Z,25.20
2022-08-26T06:53:39.722Z,26.13
2022-08-26T06:56:09.994Z,27.20
2022-08-26T06:58:39.077Z,27.40
2022-08-26T07:01:28.314Z,24.30
2022-08-26T07:03:59.611Z,27.45
2022-08-26T07:06:28.330Z,22.02
2022-08-26T07:09:01.712Z,19.58
2022-08-26T07:11:31.008Z,21.55
2022-08-26T07:13:58.991Z,20.83
2022-08-26T07:16:28.375Z,21.08
2022-08-26T07:18:56.928Z,22.38
2022-08-26T07:23:50.687Z,29.00
2022-08-26T07:26:24.904Z,28.77
2022-08-26T07:28:53.539Z,31.08
2022-08-26T07:31:22.611Z,24.77
2022-08-26T07:33:49.511Z,25.50
2022-08-26T07:36:21.175Z,26.27
2022-08-26T07:38:48.305Z,25.80
2022-08-26T07:41:17.469Z,19.48
2022-08-26T07:43:45.545Z,21.40
2022-08-26T07:46:20.755Z,21.40
2022-08-26T07:48:54.060Z,28.80
2022-08-26T07:51:21.367Z,26.83
2022-08-26T07:53:52.798Z,23.90
2022-08-26T07:56:20.863Z,27.23
2022-08-26T07:58:50.947Z,29.25
2022-08-26T08:01:20.018Z,29.75
2022-08-26T08:03:50.555Z,27.05
2022-08-26T08:06:18.550Z,25.08
2022-08-26T08:08:45.153Z,28.27
2022-08-26T08:11:12.104Z,32.25
2022-08-26T08:13:39.811Z,37.00
2022-08-26T08:16:12.529Z,36.13
2022-08-26T08:18:40.536Z,37.53
2022-08-26T08:21:24.097Z,33.28
2022-08-26T08:23:55.600Z,33.78
2022-08-26T08:26:23.836Z,33.22
2022-08-26T08:28:53.639Z,32.22
2022-08-26T08:31:55.971Z,28.98
2022-08-26T08:34:19.310Z,29.17
2022-08-26T08:36:48.518Z,25.38
2022-08-26T08:39:17.053Z,26.23
2022-08-26T08:41:46.577Z,26.17
2022-08-26T08:44:19.980Z,26.63
2022-08-26T08:46:56.483Z,23.85
2022-08-26T08:49:26.005Z,28.25
2022-08-26T08:52:05.086Z,29.25
2022-08-26T08:54:32.653Z,27.70
2022-08-26T08:57:12.597Z,24.02
2022-08-26T08:59:53.350Z,26.80
2022-08-26T09:02:35.765Z,22.42
2022-08-26T09:05:22.543Z,23.13
2022-08-26T09:08:19.814Z,19.80
2022-08-26T09:10:54.390Z,20.38
2022-08-26T09:13:25.426Z,18.95
2022-08-26T09:16:07.540Z,15.65
2022-08-26T09:19:01.774Z,19.90
2022-08-26T09:21:31.409Z,17.40
2022-08-26T09:23:58.787Z,18.13
2022-08-26T09:26:40.994Z,15.32
2022-08-26T09:31:45.369Z,16.83
2022-08-26T09:34:22.132Z,18.83
2022-08-26T09:36:53.638Z,20.33
2022-08-26T09:39:37.825Z,17.33
2022-08-26T09:42:07.861Z,15.75
2022-08-26T09:44:56.499Z,13.90
2022-08-26T09:47:29.317Z,12.45
2022-08-26T09:50:29.217Z,20.95
2022-08-26T09:53:17.244Z,23.48
2022-08-26T09:55:49.903Z,25.23
2022-08-26T09:58:37.953Z,19.85
2022-08-26T10:01:15.085Z,15.75
2022-08-26T10:08:42.360Z,15.50
2022-08-26T10:11:29.968Z,16.05
2022-08-26T10:14:25.354Z,18.30
2022-08-26T10:17:07.185Z,23.63
2022-08-26T10:19:56.829Z,16.33
2022-08-26T10:22:24.152Z,17.35
2022-08-26T10:24:56.053Z,15.27
2022-08-26T10:27:50.977Z,16.67
2022-08-26T10:30:23.371Z,17.48
2022-08-26T10:33:00.879Z,17.58
2022-08-26T10:35:28.995Z,18.00
2022-08-26T10:38:00.442Z,15.40
2022-08-26T10:40:44.855Z,15.05
2022-08-26T10:43:27.209Z,18.48
2022-08-26T10:45:59.141Z,14.73
2022-08-26T10:48:25.974Z,15.65
2022-08-26T10:51:04.269Z,21.13
2022-08-26T10:53:58.272Z,37.38
2022-08-26T10:56:29.746Z,60.88
2022-08-26T10:59:16.543Z,66.88
2022-08-26T11:01:58.209Z,33.65
2022-08-26T11:04:48.402Z,37.50
2022-08-26T11:07:31.700Z,25.67
2022-08-26T11:10:09.787Z,26.05
2022-08-26T11:12:36.321Z,20.75
2022-08-26T11:15:11.410Z,22.52
2022-08-26T11:17:45.954Z,21.20
2022-08-26T11:20:50.866Z,26.45
2022-08-26T11:23:20.606Z,23.48
2022-08-26T11:25:57.334Z,30.52
2022-08-26T11:28:44.145Z,29.30
2022-08-26T11:31:25.930Z,28.50
2022-08-26T11:34:07.281Z,30.63
2022-08-26T11:36:45.442Z,34.88
2022-08-26T11:39:31.744Z,29.60
2022-08-26T11:42:31.597Z,29.92
2022-08-26T11:44:59.892Z,28.85
2022-08-26T11:47:31.619Z,30.33
2022-08-26T11:50:15.437Z,28.17
2022-08-26T11:53:01.729Z,32.78
2022-08-26T11:55:30.735Z,27.80
2022-08-26T11:58:01.030Z,24.77
2022-08-26T12:00:33.755Z,22.08
2022-08-26T12:03:06.488Z,33.78
2022-08-26T12:05:42.389Z,22.92
2022-08-26T12:08:12.435Z,22.35
2022-08-26T12:10:40.242Z,20.40
2022-08-26T12:13:08.685Z,21.65
2022-08-26T12:15:35.845Z,21.60
2022-08-26T12:18:29.195Z,14.75
2022-08-26T12:20:59.314Z,19.80
2022-08-26T12:23:35.075Z,14.63
2022-08-26T12:28:47.712Z,14.93
2022-08-26T12:31:22.580Z,12.00
2022-08-26T12:33:49.777Z,16.65
2022-08-26T12:36:38.354Z,18.63
2022-08-26T12:39:24.516Z,14.60
2022-08-26T12:41:54.749Z,17.83
2022-08-26T12:44:41.543Z,15.40
2022-08-26T12:47:42.704Z,15.27
2022-08-26T12:50:18.954Z,12.98
2022-08-26T12:52:54.367Z,13.25
2022-08-26T12:55:43.052Z,11.50
2022-08-26T12:58:28.720Z,15.95
2022-08-26T13:01:04.790Z,10.73
2022-08-26T13:03:31.466Z,8.63
2022-08-26T13:06:15.926Z,11.80
2022-08-26T13:08:48.349Z,13.68
2022-08-26T13:11:22.191Z,8.98
2022-08-26T13:13:53.433Z,15.50
2022-08-26T13:16:22.214Z,9.70
2022-08-26T13:18:52.856Z,8.93
2022-08-26T13:21:22.560Z,6.30
2022-08-26T13:23:50.332Z,5.55
2022-08-26T13:26:18.139Z,9.50
2022-08-26T13:28:44.711Z,8.82
2022-08-26T13:31:16.090Z,9.18
2022-08-26T13:33:45.361Z,9.25
2022-08-26T13:36:14.948Z,7.97
2022-08-26T13:38:41.887Z,8.67
2022-08-26T13:41:14.995Z,9.95
2022-08-26T13:43:43.226Z,11.18
2022-08-26T13:46:09.834Z,9.20
2022-08-26T13:48:36.651Z,7.37
2022-08-26T13:51:08.278Z,10.15
2022-08-26T13:53:35.661Z,8.45
2022-08-26T13:56:02.380Z,15.57
2022-08-26T13:58:29.347Z,12.17
2022-08-26T14:00:57.991Z,6.38
2022-08-26T14:03:25.019Z,7.97
2022-08-26T14:05:53.464Z,7.55
2022-08-26T14:08:21.594Z,6.05
2022-08-26T14:13:15.583Z,8.85
2022-08-26T14:15:42.426Z,7.95
2022-08-26T14:18:12.189Z,11.55
2022-08-26T14:20:39.424Z,6.05
2022-08-26T14:23:14.475Z,9.77
2022-08-26T14:25:41.248Z,7.60
2022-08-26T14:28:07.942Z,12.83
2022-08-26T14:30:34.615Z,12.87
2022-08-26T14:33:01.139Z,7.67
2022-08-26T14:35:31.150Z,4.73
2022-08-26T14:37:58.315Z,12.25
2022-08-26T14:40:28.961Z,9.52
2022-08-26T14:42:55.980Z,8.23
2022-08-26T14:45:28.550Z,8.23
2022-08-26T14:47:59.838Z,7.28
2022-08-26T14:50:26.648Z,6.47
2022-08-26T14:53:11.978Z,10.38
2022-08-26T14:55:42.220Z,8.43
2022-08-26T14:58:09.881Z,10.70
2022-08-26T15:00:37.252Z,12.43
2022-08-26T15:03:06.874Z,9.88
2022-08-26T15:05:34.144Z,10.48
2022-08-26T15:08:02.318Z,11.02
2022-08-26T15:10:28.971Z,11.18
2022-08-26T15:12:55.594Z,11.70
2022-08-26T15:15:23.978Z,7.00
2022-08-26T15:17:50.579Z,5.73
2022-08-26T15:20:17.137Z,8.40
2022-08-26T15:22:44.479Z,9.40
2022-08-26T15:27:38.881Z,9.35
2022-08-26T15:30:09.187Z,10.77
2022-08-26T15:32:36.277Z,6.35
2022-08-26T15:35:08.204Z,9.07
2022-08-26T15:37:35.914Z,5.32
2022-08-26T15:40:02.954Z,11.07
2022-08-26T15:42:29.755Z,9.13
2022-08-26T15:44:56.433Z,10.15
2022-08-26T15:47:23.827Z,9.20
2022-08-26T15:52:17.386Z,12.13
2022-08-26T15:54:47.348Z,6.75
2022-08-26T15:57:16.448Z,10.98
2022-08-26T15:59:45.723Z,10.57
2022-08-26T16:02:12.438Z,11.47
2022-08-26T16:04:39.139Z,13.83
2022-08-26T16:07:05.865Z,11.50
2022-08-26T16:09:32.469Z,12.93
2022-08-26T16:11:59.022Z,12.90
2022-08-26T16:14:28.839Z,8.90
2022-08-26T16:16:57.606Z,16.42
2022-08-26T16:19:24.650Z,10.25
2022-08-26T16:21:51.551Z,15.65
2022-08-26T16:24:24.746Z,11.80
2022-08-26T16:26:58.675Z,14.07
2022-08-26T16:29:25.502Z,12.80
2022-08-26T16:31:54.605Z,9.10
2022-08-26T16:34:21.946Z,9.05
2022-08-26T16:36:48.493Z,11.00
2022-08-26T16:39:15.058Z,12.60
2022-08-26T16:41:42.275Z,7.93
2022-08-26T16:44:09.125Z,9.27
2022-08-26T16:46:36.025Z,8.88
2022-08-26T16:49:04.747Z,6.93
2022-08-26T16:51:32.709Z,6.32
2022-08-26T16:54:07.141Z,8.27
2022-08-26T16:56:34.530Z,5.82
2022-08-26T17:01:28.890Z,13.15
2022-08-26T17:03:55.630Z,13.53
2022-08-26T17:06:22.377Z,10.30
2022-08-26T17:08:49.547Z,10.13
2022-08-26T17:11:16.155Z,9.10
2022-08-26T17:13:43.047Z,8.60
2022-08-26T17:16:11.944Z,7.38
2022-08-26T17:18:38.653Z,10.95
2022-08-26T17:21:10.735Z,8.00
2022-08-26T17:23:38.425Z,13.82
2022-08-26T17:26:05.408Z,7.38
2022-08-26T17:28:32.460Z,7.75
2022-08-26T17:30:59.470Z,5.63
2022-08-26T17:33:26.254Z,9.32
2022-08-26T17:35:53.357Z,7.23
2022-08-26T17:38:21.398Z,9.40
2022-08-26T17:40:53.676Z,7.70
2022-08-26T17:43:20.906Z,8.43
2022-08-26T17:45:47.645Z,9.15
2022-08-26T17:48:14.522Z,6.17
2022-08-26T17:50:49.317Z,8.88
2022-08-26T17:53:19.210Z,7.78
2022-08-26T17:58:40.548Z,12.25
2022-08-26T18:01:14.459Z,9.75
2022-08-26T18:04:05.967Z,8.97
2022-08-26T18:06:32.782Z,6.30
2022-08-26T18:09:00.241Z,8.83
2022-08-26T18:11:27.209Z,7.57
2022-08-26T18:13:54.053Z,11.88
2022-08-26T18:16:24.171Z,5.77
2022-08-26T18:18:53.839Z,8.55
2022-08-26T18:21:23.673Z,7.25
2022-08-26T18:23:51.384Z,5.90
2022-08-26T18:26:36.151Z,10.02
2022-08-26T18:29:04.118Z,6.32
2022-08-26T18:31:31.565Z,8.32
2022-08-26T18:36:36.749Z,11.60
2022-08-26T18:39:05.838Z,12.43
2022-08-26T18:41:38.734Z,7.63
2022-08-26T18:44:05.441Z,6.85
2022-08-26T18:46:32.222Z,6.27
2022-08-26T18:48:58.977Z,7.60
2022-08-26T18:51:29.717Z,6.23
2022-08-26T18:53:57.219Z,5.30
2022-08-26T18:58:50.582Z,7.72
2022-08-26T19:01:18.987Z,10.63
2022-08-26T19:03:46.840Z,5.00
2022-08-26T19:06:20.254Z,8.88
2022-08-26T19:08:49.712Z,5.55
2022-08-26T19:11:18.107Z,6.43
2022-08-26T19:13:58.419Z,5.75
2022-08-26T19:16:26.940Z,8.43
2022-08-26T19:18:54.703Z,7.00
2022-08-26T19:21:23.035Z,5.97
2022-08-26T19:23:50.175Z,10.27
2022-08-26T19:26:17.597Z,6.65
2022-08-26T19:28:44.242Z,5.72
2022-08-26T19:31:11.998Z,7.87
2022-08-26T19:33:40.315Z,7.38
2022-08-26T19:36:08.711Z,8.80
2022-08-26T19:38:38.043Z,7.85
2022-08-26T19:41:04.594Z,7.22
2022-08-26T19:43:31.115Z,4.53
2022-08-26T19:48:25.471Z,15.60
2022-08-26T19:50:51.978Z,11.30
2022-08-26T19:53:19.794Z,10.10
2022-08-26T19:55:46.340Z,13.13
2022-08-26T19:58:13.018Z,9.75
2022-08-26T20:00:39.797Z,8.47
2022-08-26T20:03:08.593Z,9.03
2022-08-26T20:05:39.585Z,7.75
2022-08-26T20:08:06.169Z,6.40
2022-08-26T20:10:35.293Z,7.97
2022-08-26T20:13:01.877Z,5.53
2022-08-26T20:15:28.645Z,6.13
2022-08-26T20:20:41.092Z,7.40
2022-08-26T20:23:08.720Z,9.07
2022-08-26T20:25:35.464Z,7.45
2022-08-26T20:28:02.150Z,10.80
2022-08-26T20:30:28.708Z,8.63
2022-08-26T20:32:55.588Z,9.82
2022-08-26T20:35:23.937Z,9.50
2022-08-26T20:37:50.542Z,8.00
2022-08-26T20:40:17.470Z,8.32
2022-08-26T20:42:44.072Z,8.65
2022-08-26T20:45:11.240Z,8.70
2022-08-26T20:47:37.894Z,7.72
2022-08-26T20:50:04.828Z,7.40
2022-08-26T20:52:31.492Z,8.45
2022-08-26T20:54:58.153Z,8.33
2022-08-26T20:57:24.711Z,9.45
2022-08-26T20:59:51.411Z,10.88
2022-08-26T21:02:18.278Z,15.53
2022-08-26T21:04:44.824Z,18.83
2022-08-26T21:07:11.493Z,19.95
2022-08-26T21:09:38.037Z,16.60
2022-08-26T21:12:05.181Z,15.30
2022-08-26T21:14:32.030Z,14.97
2022-08-26T21:16:58.824Z,16.50
2022-08-26T21:19:25.420Z,14.00
2022-08-26T21:21:52.092Z,13.15
2022-08-26T21:24:18.904Z,15.57
2022-08-26T21:26:45.984Z,13.00
2022-08-26T21:29:13.888Z,14.52
2022-08-26T21:31:46.019Z,14.32
2022-08-26T21:34:16.111Z,21.77
2022-08-26T21:36:42.937Z,16.85
2022-08-26T21:39:12.074Z,17.60
2022-08-26T21:41:40.536Z,16.98
2022-08-26T21:44:07.587Z,15.45
2022-08-26T21:46:37.373Z,15.10
2022-08-26T21:49:07.470Z,12.75
2022-08-26T21:51:37.875Z,11.70
2022-08-26T21:54:10.161Z,10.35
2022-08-26T21:56:39.915Z,7.68
2022-08-26T21:59:07.630Z,8.63
2022-08-26T22:01:34.786Z,8.93
2022-08-26T22:04:08.584Z,7.53
2022-08-26T22:06:41.769Z,8.38
2022-08-26T22:09:08.369Z,6.95
2022-08-26T22:11:35.053Z,8.40
2022-08-26T22:14:01.736Z,6.47
2022-08-26T22:16:28.814Z,8.90
2022-08-26T22:18:55.712Z,7.40
2022-08-26T22:21:24.350Z,7.83
2022-08-26T22:23:51.541Z,8.20
2022-08-26T22:26:25.774Z,10.70
2022-08-26T22:28:58.489Z,5.18
2022-08-26T22:31:28.102Z,7.88
2022-08-26T22:34:07.200Z,7.15
2022-08-26T22:36:34.050Z,7.45
2022-08-26T22:39:01.139Z,5.47
2022-08-26T22:41:27.875Z,8.00
2022-08-26T22:43:54.558Z,5.90
2022-08-26T22:46:24.864Z,6.33
2022-08-26T22:48:54.037Z,8.40
2022-08-26T22:51:21.978Z,8.85
2022-08-26T22:53:48.696Z,7.93
2022-08-26T22:56:15.777Z,6.43
2022-08-26T22:58:42.522Z,6.53
2022-08-26T23:01:09.138Z,6.53
2022-08-26T23:03:35.882Z,4.45
2022-08-26T23:06:06.000Z,9.07
2022-08-26T23:08:32.755Z,6.15
2022-08-26T23:10:59.302Z,8.50
2022-08-26T23:13:25.850Z,4.30
2022-08-26T23:16:00.620Z,7.57
2022-08-26T23:18:27.220Z,6.95
2022-08-26T23:20:55.515Z,5.47
2022-08-26T23:23:22.893Z,8.65
2022-08-26T23:25:49.927Z,6.72
2022-08-26T23:28:17.061Z,4.20
2022-08-26T23:30:43.691Z,8.15
2022-08-26T23:33:10.244Z,9.35
2022-08-26T23:35:36.813Z,5.80
2022-08-26T23:38:05.296Z,6.05
2022-08-26T23:40:34.681Z,10.48
2022-08-26T23:43:05.252Z,4.80
2022-08-26T23:45:32.471Z,11.60
2022-08-26T23:47:59.371Z,7.72
2022-08-26T23:50:49.535Z,7.80
2022-08-26T23:53:20.046Z,7.03
2022-08-26T23:55:52.081Z,9.02
